createdAt,value
2018-02-25T00:02:25.321Z,42.80
2018-02-25T00:04:56.190Z,42.80
2018-02-25T00:07:27.120Z,42.70
2018-02-25T00:09:58.297Z,42.50
2018-02-25T00:12:29.078Z,42.50
2018-02-25T00:15:02.281Z,42.90
2018-02-25T00:17:33.385Z,42.90
2018-02-25T00:20:05.383Z,43.20
2018-02-25T00:22:36.562Z,43.20
2018-02-25T00:25:11.876Z,43.90
2018-02-25T00:27:43.040Z,43.90
2018-02-25T00:30:14.558Z,43.90
2018-02-25T00:32:45.403Z,44.20
2018-02-25T00:35:16.493Z,44.20
2018-02-25T00:37:48.095Z,43.70
2018-02-25T00:40:19.881Z,44.40
2018-02-25T00:42:50.789Z,43.60
2018-02-25T00:45:22.593Z,43.60
2018-02-25T00:47:53.924Z,43.40
2018-02-25T00:50:25.204Z,43.40
2018-02-25T00:52:57.896Z,44.60
2018-02-25T00:55:30.151Z,44.10
2018-02-25T00:58:02.345Z,43.70
2018-02-25T01:00:34.558Z,43.80
2018-02-25T01:03:06.159Z,44.00
2018-02-25T01:05:38.963Z,43.90
2018-02-25T01:08:10.423Z,43.80
2018-02-25T01:10:41.844Z,44.20
2018-02-25T01:13:13.248Z,44.00
2018-02-25T01:15:44.924Z,44.00
2018-02-25T01:18:16.428Z,44.20
2018-02-25T01:20:48.030Z,43.80
2018-02-25T01:23:19.899Z,43.80
2018-02-25T01:25:52.116Z,44.30
2018-02-25T01:28:23.192Z,44.30
2018-02-25T01:30:54.681Z,44.20
2018-02-25T01:33:26.103Z,44.10
2018-02-25T01:35:58.662Z,44.00
2018-02-25T01:38:30.764Z,44.20
2018-02-25T01:41:03.006Z,44.30
2018-02-25T01:43:34.610Z,44.30
2018-02-25T01:46:06.180Z,44.10
2018-02-25T01:48:37.434Z,44.10
2018-02-25T01:51:09.713Z,44.10
2018-02-25T01:53:41.044Z,44.30
2018-02-25T01:56:12.482Z,44.40
2018-02-25T01:58:44.134Z,44.40
2018-02-25T02:01:15.722Z,44.60
2018-02-25T02:03:46.818Z,44.70
2018-02-25T02:06:18.985Z,44.80
2018-02-25T02:08:51.391Z,44.90
2018-02-25T02:11:23.055Z,45.00
2018-02-25T02:13:55.249Z,45.60
2018-02-25T02:16:27.101Z,45.60
2018-02-25T02:18:58.957Z,45.40
2018-02-25T02:21:30.478Z,45.00
2018-02-25T02:24:02.058Z,45.30
2018-02-25T02:26:35.145Z,45.30
2018-02-25T02:29:06.443Z,45.40
2018-02-25T02:31:38.904Z,45.70
2018-02-25T02:34:10.866Z,45.60
2018-02-25T02:36:42.216Z,45.60
2018-02-25T02:39:15.309Z,46.00
2018-02-25T02:41:47.846Z,45.90
2018-02-25T02:44:19.865Z,45.80
2018-02-25T02:46:51.857Z,46.40
2018-02-25T02:49:23.142Z,46.80
2018-02-25T02:51:54.316Z,46.70
2018-02-25T02:54:25.639Z,46.60
2018-02-25T02:56:56.827Z,46.50
2018-02-25T02:59:27.788Z,46.20
2018-02-25T03:01:59.541Z,46.40
2018-02-25T03:04:30.440Z,46.50
2018-02-25T03:07:01.360Z,46.00
2018-02-25T03:09:33.133Z,46.00
2018-02-25T03:12:04.186Z,45.90
2018-02-25T03:14:35.285Z,45.80
2018-02-25T03:17:05.749Z,46.10
2018-02-25T03:19:36.422Z,46.20
2018-02-25T03:22:06.824Z,46.60
2018-02-25T03:24:38.044Z,46.80
2018-02-25T03:27:09.571Z,46.40
2018-02-25T03:29:40.986Z,46.30
2018-02-25T03:32:12.202Z,46.40
2018-02-25T03:34:43.142Z,46.00
2018-02-25T03:37:13.874Z,46.40
2018-02-25T03:39:46.866Z,46.80
2018-02-25T03:42:17.724Z,46.80
2018-02-25T03:44:48.200Z,48.10
2018-02-25T03:47:18.630Z,46.90
2018-02-25T03:49:49.249Z,46.90
2018-02-25T03:52:19.963Z,47.00
2018-02-25T03:54:50.647Z,47.00
2018-02-25T03:57:21.255Z,47.10
2018-02-25T03:59:52.007Z,47.00
2018-02-25T04:02:23.131Z,47.40
2018-02-25T04:04:53.758Z,47.40
2018-02-25T04:07:24.215Z,47.50
2018-02-25T04:09:55.919Z,47.40
2018-02-25T04:12:26.920Z,47.40
2018-02-25T04:14:57.612Z,47.20
2018-02-25T04:17:28.148Z,47.20
2018-02-25T04:19:58.676Z,47.20
2018-02-25T04:22:29.758Z,47.10
2018-02-25T04:25:00.497Z,47.70
2018-02-25T04:27:31.018Z,47.40
2018-02-25T04:30:02.200Z,47.30
2018-02-25T04:32:32.699Z,47.30
2018-02-25T04:35:03.153Z,47.30
2018-02-25T04:37:35.199Z,47.40
2018-02-25T04:40:05.849Z,47.40
2018-02-25T04:42:36.534Z,47.70
2018-02-25T04:45:07.785Z,47.80
2018-02-25T04:47:39.216Z,47.30
2018-02-25T04:50:10.452Z,47.00
2018-02-25T04:52:41.542Z,47.00
2018-02-25T04:55:13.161Z,47.40
2018-02-25T04:57:43.543Z,47.90
2018-02-25T05:00:14.636Z,47.50
2018-02-25T05:02:45.061Z,47.70
2018-02-25T05:05:16.189Z,48.00
2018-02-25T05:07:46.959Z,48.00
2018-02-25T05:10:17.237Z,48.40
2018-02-25T05:12:47.553Z,49.60
2018-02-25T05:15:18.147Z,49.60
2018-02-25T05:17:48.681Z,49.40
2018-02-25T05:20:19.465Z,49.50
2018-02-25T05:22:49.768Z,49.30
2018-02-25T05:25:20.236Z,50.00
2018-02-25T05:27:50.680Z,50.20
2018-02-25T05:30:21.049Z,50.20
2018-02-25T05:32:52.029Z,50.30
2018-02-25T05:35:22.230Z,50.10
2018-02-25T05:37:52.647Z,50.00
2018-02-25T05:40:23.635Z,49.50
2018-02-25T05:42:54.244Z,49.70
2018-02-25T05:45:25.644Z,49.90
2018-02-25T05:47:56.911Z,49.90
2018-02-25T05:50:27.797Z,50.40
2018-02-25T05:52:58.873Z,50.80
2018-02-25T05:55:30.619Z,50.00
2018-02-25T05:58:01.158Z,49.90
2018-02-25T06:00:31.864Z,50.30
2018-02-25T06:03:03.016Z,50.40
2018-02-25T06:05:33.457Z,50.20
2018-02-25T06:08:04.547Z,51.20
2018-02-25T06:10:35.687Z,50.60
2018-02-25T06:13:06.427Z,51.00
2018-02-25T06:15:38.063Z,51.00
2018-02-25T06:18:08.932Z,51.00
2018-02-25T06:20:40.667Z,50.60
2018-02-25T06:23:12.174Z,50.50
2018-02-25T06:25:42.644Z,50.00
2018-02-25T06:28:13.260Z,49.30
2018-02-25T06:30:45.103Z,48.70
2018-02-25T06:33:16.171Z,50.20
2018-02-25T06:35:47.044Z,50.20
2018-02-25T06:38:19.709Z,49.90
2018-02-25T06:40:52.145Z,50.50
2018-02-25T06:43:23.288Z,49.80
2018-02-25T06:45:54.160Z,49.90
2018-02-25T06:48:26.156Z,49.80
2018-02-25T06:50:57.782Z,49.80
2018-02-25T06:53:29.967Z,47.80
2018-02-25T06:56:02.247Z,47.60
2018-02-25T06:58:33.611Z,47.50
2018-02-25T07:01:04.800Z,46.40
2018-02-25T07:03:37.746Z,46.70
2018-02-25T07:06:09.415Z,46.60
2018-02-25T07:08:41.929Z,46.90
2018-02-25T07:11:14.771Z,46.50
2018-02-25T07:13:46.152Z,46.50
2018-02-25T07:16:17.415Z,46.40
2018-02-25T07:18:49.476Z,46.00
2018-02-25T07:21:21.566Z,46.50
2018-02-25T07:23:53.226Z,46.50
2018-02-25T07:26:24.903Z,44.80
2018-02-25T07:28:56.662Z,45.80
2018-02-25T07:31:28.032Z,45.90
2018-02-25T07:33:59.418Z,45.70
2018-02-25T07:36:31.833Z,45.40
2018-02-25T07:39:03.157Z,45.40
2018-02-25T07:41:35.510Z,45.30
2018-02-25T07:44:07.615Z,44.80
2018-02-25T07:46:39.003Z,44.80
2018-02-25T07:49:13.660Z,44.60
2018-02-25T07:51:44.855Z,44.30
2018-02-25T07:54:16.258Z,44.30
2018-02-25T07:56:48.124Z,43.80
2018-02-25T07:59:19.339Z,43.90
2018-02-25T08:01:51.420Z,44.40
2018-02-25T08:04:22.854Z,44.40
2018-02-25T08:06:54.850Z,42.80
2018-02-25T08:09:28.244Z,43.50
2018-02-25T08:11:59.352Z,42.90
2018-02-25T08:14:30.346Z,43.40
2018-02-25T08:17:01.221Z,43.10
2018-02-25T08:19:32.949Z,42.80
2018-02-25T08:22:04.452Z,42.60
2018-02-25T08:24:36.242Z,42.10
2018-02-25T08:27:07.552Z,42.60
2018-02-25T08:29:39.337Z,42.50
2018-02-25T08:32:11.295Z,41.90
2018-02-25T08:34:42.663Z,41.90
2018-02-25T08:37:13.834Z,41.80
2018-02-25T08:39:45.010Z,41.80
2018-02-25T08:42:16.118Z,41.20
2018-02-25T08:44:47.235Z,41.00
2018-02-25T08:47:18.450Z,41.10
2018-02-25T08:49:50.101Z,40.50
2018-02-25T08:52:21.749Z,40.10
2018-02-25T08:54:52.377Z,40.10
2018-02-25T08:57:23.520Z,39.50
2018-02-25T08:59:54.710Z,39.50
2018-02-25T09:02:25.683Z,39.70
2018-02-25T09:04:56.477Z,39.40
2018-02-25T09:07:28.484Z,39.90
2018-02-25T09:09:59.586Z,39.90
2018-02-25T09:12:31.144Z,39.40
2018-02-25T09:15:01.875Z,38.50
2018-02-25T09:17:32.705Z,38.70
2018-02-25T09:22:46.087Z,38.40
2018-02-25T09:25:20.214Z,37.90
2018-02-25T09:27:50.967Z,37.20
2018-02-25T09:30:22.119Z,36.50
2018-02-25T09:32:54.469Z,36.40
2018-02-25T09:35:25.526Z,36.40
2018-02-25T09:37:57.600Z,36.00
2018-02-25T09:40:29.303Z,36.40
2018-02-25T09:43:00.264Z,36.40
2018-02-25T09:45:31.275Z,36.30
2018-02-25T09:48:01.978Z,35.50
2018-02-25T09:50:34.401Z,34.70
2018-02-25T09:53:06.439Z,34.50
2018-02-25T09:55:37.433Z,34.50
2018-02-25T09:58:08.268Z,33.80
2018-02-25T10:00:39.247Z,34.10
2018-02-25T10:03:12.044Z,34.30
2018-02-25T10:05:43.627Z,33.80
2018-02-25T10:08:14.704Z,33.70
2018-02-25T10:10:48.101Z,33.20
2018-02-25T10:13:19.851Z,33.10
2018-02-25T10:15:50.803Z,33.10
2018-02-25T10:18:22.368Z,33.40
2018-02-25T10:20:54.249Z,33.60
2018-02-25T10:23:25.028Z,33.60
2018-02-25T10:25:55.815Z,32.90
2018-02-25T10:28:28.322Z,33.20
2018-02-25T10:31:00.127Z,33.20
2018-02-25T10:33:31.539Z,31.90
2018-02-25T10:36:02.704Z,31.80
2018-02-25T10:38:33.608Z,31.60
2018-02-25T10:41:04.439Z,32.20
2018-02-25T10:43:36.257Z,31.20
2018-02-25T10:46:08.018Z,30.00
2018-02-25T10:48:39.165Z,30.00
2018-02-25T10:51:09.917Z,30.40
2018-02-25T10:53:40.847Z,30.20
2018-02-25T10:56:13.467Z,30.40
2018-02-25T10:58:44.446Z,29.50
2018-02-25T11:01:16.125Z,28.90
2018-02-25T11:03:47.284Z,28.90
2018-02-25T11:06:18.045Z,28.90
2018-02-25T11:08:48.843Z,29.00
2018-02-25T11:11:19.633Z,28.70
2018-02-25T11:13:53.447Z,28.40
2018-02-25T11:16:28.131Z,27.60
2018-02-25T11:18:59.113Z,27.60
2018-02-25T11:21:30.772Z,27.70
2018-02-25T11:24:02.509Z,27.50
2018-02-25T11:26:33.759Z,27.50
2018-02-25T11:29:04.561Z,28.10
2018-02-25T11:31:36.379Z,27.30
2018-02-25T11:34:07.720Z,26.90
2018-02-25T11:36:39.426Z,26.50
2018-02-25T11:39:14.367Z,26.00
2018-02-25T11:41:45.319Z,25.70
2018-02-25T11:44:16.140Z,25.90
2018-02-25T11:46:47.076Z,25.80
2018-02-25T11:49:17.842Z,26.20
2018-02-25T11:51:48.680Z,25.70
2018-02-25T11:54:19.455Z,25.00
2018-02-25T11:56:50.233Z,25.10
2018-02-25T11:59:21.479Z,25.30
2018-02-25T12:01:52.425Z,24.40
2018-02-25T12:04:26.834Z,23.60
2018-02-25T12:06:57.725Z,24.00
2018-02-25T12:09:28.995Z,23.90
2018-02-25T12:12:00.369Z,24.50
2018-02-25T12:14:33.068Z,25.00
2018-02-25T12:17:03.906Z,25.40
2018-02-25T12:19:36.201Z,25.30
2018-02-25T12:22:07.112Z,25.30
2018-02-25T12:24:37.827Z,25.60
2018-02-25T12:27:08.658Z,25.90
2018-02-25T12:29:40.778Z,25.70
2018-02-25T12:32:11.715Z,26.10
2018-02-25T12:34:43.426Z,25.80
2018-02-25T12:37:14.797Z,25.80
2018-02-25T12:39:45.744Z,25.10
2018-02-25T12:42:17.478Z,24.50
2018-02-25T12:44:50.570Z,24.50
2018-02-25T12:47:21.317Z,24.10
2018-02-25T12:49:52.906Z,24.50
2018-02-25T12:52:24.460Z,23.10
2018-02-25T12:54:57.612Z,24.00
2018-02-25T12:57:28.441Z,23.90
2018-02-25T13:00:00.048Z,23.10
2018-02-25T13:02:31.473Z,23.90
2018-02-25T13:05:03.093Z,23.70
2018-02-25T13:07:37.374Z,23.60
2018-02-25T13:10:08.354Z,23.40
2018-02-25T13:12:39.206Z,23.00
2018-02-25T13:15:10.918Z,23.00
2018-02-25T13:17:41.721Z,22.90
2018-02-25T13:20:13.394Z,21.90
2018-02-25T13:22:44.120Z,22.30
2018-02-25T13:25:16.020Z,22.40
2018-02-25T13:27:46.775Z,22.40
2018-02-25T13:30:17.762Z,23.00
2018-02-25T13:32:48.739Z,23.30
2018-02-25T13:35:24.145Z,24.00
2018-02-25T13:37:56.614Z,24.20
2018-02-25T13:40:27.581Z,23.20
2018-02-25T13:42:58.723Z,22.80
2018-02-25T13:45:29.849Z,22.20
2018-02-25T13:48:00.562Z,22.50
2018-02-25T13:50:32.308Z,22.10
2018-02-25T13:53:03.837Z,22.30
2018-02-25T13:55:34.662Z,22.30
2018-02-25T13:58:06.353Z,22.40
2018-02-25T14:00:37.954Z,23.00
2018-02-25T14:03:09.071Z,23.00
2018-02-25T14:05:40.327Z,23.00
2018-02-25T14:08:11.090Z,23.20
2018-02-25T14:10:42.037Z,23.20
2018-02-25T14:13:14.833Z,23.60
2018-02-25T14:15:45.934Z,23.50
2018-02-25T14:18:16.758Z,21.90
2018-02-25T14:20:47.404Z,21.80
2018-02-25T14:23:18.646Z,22.00
2018-02-25T14:25:49.577Z,22.00
2018-02-25T14:28:20.423Z,21.90
2018-02-25T14:30:51.577Z,21.90
2018-02-25T14:33:23.262Z,22.00
2018-02-25T14:35:53.958Z,22.00
2018-02-25T14:38:28.303Z,21.70
2018-02-25T14:41:00.176Z,22.50
2018-02-25T14:43:31.246Z,21.10
2018-02-25T14:46:02.627Z,20.50
2018-02-25T14:48:36.110Z,20.50
2018-02-25T14:51:08.323Z,20.20
2018-02-25T14:53:39.192Z,19.80
2018-02-25T14:56:11.271Z,19.90
2018-02-25T14:58:42.243Z,19.30
2018-02-25T15:01:13.001Z,20.00
2018-02-25T15:03:44.303Z,19.90
2018-02-25T15:06:15.412Z,20.30
2018-02-25T15:08:46.264Z,20.40
2018-02-25T15:11:29.637Z,20.90
2018-02-25T15:14:00.633Z,20.90
2018-02-25T15:16:32.600Z,21.10
2018-02-25T15:19:05.120Z,21.00
2018-02-25T15:21:35.883Z,21.20
2018-02-25T15:24:08.513Z,21.60
2018-02-25T15:26:40.532Z,21.60
2018-02-25T15:29:12.245Z,20.90
2018-02-25T15:31:43.069Z,20.50
2018-02-25T15:34:14.314Z,20.30
2018-02-25T15:36:45.352Z,20.80
2018-02-25T15:39:16.922Z,21.40
2018-02-25T15:41:47.769Z,21.30
2018-02-25T15:44:22.006Z,21.40
2018-02-25T15:46:52.809Z,21.30
2018-02-25T15:49:24.017Z,21.40
2018-02-25T15:51:55.504Z,21.80
2018-02-25T15:54:26.302Z,21.80
2018-02-25T15:56:58.018Z,21.80
2018-02-25T15:59:28.713Z,21.70
2018-02-25T16:02:02.364Z,21.70
2018-02-25T16:04:33.238Z,21.70
2018-02-25T16:07:05.074Z,21.70
2018-02-25T16:09:35.732Z,21.70
2018-02-25T16:12:12.924Z,21.80
2018-02-25T16:14:47.076Z,21.80
2018-02-25T16:17:17.945Z,22.40
2018-02-25T16:19:48.712Z,23.40
2018-02-25T16:22:19.507Z,23.60
2018-02-25T16:25:04.837Z,24.40
2018-02-25T16:27:36.189Z,23.20
2018-02-25T16:30:08.404Z,22.40
2018-02-25T16:32:40.781Z,22.90
2018-02-25T16:35:11.641Z,22.50
2018-02-25T16:37:43.111Z,23.00
2018-02-25T16:40:14.190Z,23.10
2018-02-25T16:42:47.006Z,23.10
2018-02-25T16:45:19.840Z,23.60
2018-02-25T16:47:50.589Z,23.60
2018-02-25T16:50:21.658Z,23.80
2018-02-25T16:52:53.803Z,24.20
2018-02-25T16:55:25.819Z,24.20
2018-02-25T16:57:57.407Z,24.30
2018-02-25T17:00:30.272Z,24.40
2018-02-25T17:03:01.235Z,24.30
2018-02-25T17:05:32.558Z,24.00
2018-02-25T17:08:03.378Z,24.10
2018-02-25T17:10:37.213Z,23.50
2018-02-25T17:13:08.032Z,23.80
2018-02-25T17:15:42.626Z,23.70
2018-02-25T17:18:15.229Z,23.50
2018-02-25T17:20:46.800Z,23.50
2018-02-25T17:23:17.687Z,23.60
2018-02-25T17:25:48.283Z,23.90
2018-02-25T17:28:20.702Z,23.90
2018-02-25T17:30:52.936Z,24.10
2018-02-25T17:33:23.984Z,24.20
2018-02-25T17:35:54.992Z,24.40
2018-02-25T17:38:25.820Z,24.40
2018-02-25T17:40:57.207Z,24.70
2018-02-25T17:43:29.034Z,24.70
2018-02-25T17:45:59.873Z,24.90
2018-02-25T17:48:30.936Z,24.60
2018-02-25T17:51:03.322Z,24.50
2018-02-25T17:53:34.235Z,24.80
2018-02-25T17:56:06.566Z,25.00
2018-02-25T17:58:38.323Z,25.20
2018-02-25T18:01:10.296Z,25.20
2018-02-25T18:03:41.351Z,25.10
2018-02-25T18:06:14.419Z,25.50
2018-02-25T18:08:45.173Z,25.30
2018-02-25T18:11:16.301Z,25.40
2018-02-25T18:13:47.120Z,25.40
2018-02-25T18:16:18.613Z,25.40
2018-02-25T18:18:52.607Z,25.40
2018-02-25T18:21:23.574Z,25.50
2018-02-25T18:23:54.553Z,25.50
2018-02-25T18:26:26.716Z,26.00
2018-02-25T18:28:57.479Z,25.80
2018-02-25T18:31:28.460Z,25.30
2018-02-25T18:33:59.343Z,26.10
2018-02-25T18:36:30.894Z,26.10
2018-02-25T18:39:02.664Z,26.30
2018-02-25T18:41:37.466Z,26.30
2018-02-25T18:44:09.001Z,26.30
2018-02-25T18:46:39.959Z,26.30
2018-02-25T18:49:11.252Z,26.60
2018-02-25T18:51:46.244Z,26.50
2018-02-25T18:54:17.117Z,26.40
2018-02-25T18:56:51.382Z,26.70
2018-02-25T18:59:22.121Z,26.90
2018-02-25T19:01:53.329Z,26.60
2018-02-25T19:04:23.987Z,26.60
2018-02-25T19:06:55.747Z,26.50
2018-02-25T19:09:26.768Z,26.50
2018-02-25T19:11:57.550Z,26.70
2018-02-25T19:14:28.403Z,26.90
2018-02-25T19:17:00.988Z,27.10
2018-02-25T19:19:33.391Z,27.10
2018-02-25T19:22:04.647Z,27.00
2018-02-25T19:24:35.480Z,27.30
2018-02-25T19:27:07.424Z,27.40
2018-02-25T19:29:38.420Z,27.70
2018-02-25T19:32:10.224Z,27.90
2018-02-25T19:34:44.188Z,27.90
2018-02-25T19:39:27.435Z,28.50
2018-02-25T19:41:59.314Z,29.20
2018-02-25T19:44:30.449Z,28.70
2018-02-25T19:47:02.000Z,29.00
2018-02-25T19:49:37.095Z,29.70
2018-02-25T19:52:07.977Z,29.10
2018-02-25T19:54:40.347Z,29.20
2018-02-25T19:57:12.080Z,29.30
2018-02-25T19:59:43.297Z,29.30
2018-02-25T20:02:14.674Z,29.30
2018-02-25T20:04:45.829Z,29.40
2018-02-25T20:07:17.613Z,30.10
2018-02-25T20:09:49.329Z,29.70
2018-02-25T20:12:21.405Z,29.80
2018-02-25T20:14:53.245Z,29.80
2018-02-25T20:17:24.589Z,29.90
2018-02-25T20:19:55.366Z,30.00
2018-02-25T20:22:26.995Z,30.00
2018-02-25T20:24:57.778Z,30.00
2018-02-25T20:27:30.628Z,30.30
2018-02-25T20:30:03.145Z,30.40
2018-02-25T20:32:35.394Z,30.70
2018-02-25T20:35:06.642Z,30.80
2018-02-25T20:37:37.429Z,31.00
2018-02-25T20:40:08.108Z,31.10
2018-02-25T20:42:41.572Z,31.10
2018-02-25T20:45:12.349Z,31.50
2018-02-25T20:47:43.094Z,31.60
2018-02-25T20:50:13.838Z,31.70
2018-02-25T20:52:44.749Z,31.60
2018-02-25T20:55:15.577Z,31.70
2018-02-25T20:57:47.435Z,31.80
2018-02-25T21:00:20.436Z,32.20
2018-02-25T21:02:51.283Z,32.20
2018-02-25T21:05:22.055Z,32.20
2018-02-25T21:07:58.056Z,32.30
2018-02-25T21:10:29.586Z,32.60
2018-02-25T21:13:00.477Z,32.60
2018-02-25T21:15:31.551Z,32.70
2018-02-25T21:18:03.161Z,33.10
2018-02-25T21:20:37.688Z,33.50
2018-02-25T21:23:09.859Z,34.30
2018-02-25T21:25:40.546Z,33.60
2018-02-25T21:28:13.431Z,33.70
2018-02-25T21:30:44.412Z,33.70
2018-02-25T21:33:15.221Z,33.80
2018-02-25T21:35:47.014Z,33.90
2018-02-25T21:38:17.956Z,33.80
2018-02-25T21:40:48.773Z,34.10
2018-02-25T21:43:19.973Z,34.00
2018-02-25T21:45:50.841Z,34.40
2018-02-25T21:48:22.557Z,34.90
2018-02-25T21:50:55.312Z,34.90
2018-02-25T21:53:30.263Z,35.20
2018-02-25T21:56:05.517Z,35.60
2018-02-25T22:00:47.508Z,35.80
2018-02-25T22:03:37.582Z,36.90
2018-02-25T22:06:08.844Z,36.60
2018-02-25T22:08:40.063Z,37.20
2018-02-25T22:11:11.168Z,37.50
2018-02-25T22:13:42.862Z,37.70
2018-02-25T22:16:15.674Z,37.80
2018-02-25T22:18:47.468Z,38.00
2018-02-25T22:21:19.010Z,39.10
2018-02-25T22:23:51.175Z,38.30
2018-02-25T22:26:22.623Z,38.60
2018-02-25T22:28:53.796Z,38.90
2018-02-25T22:31:27.036Z,39.80
2018-02-25T22:33:58.137Z,39.80
2018-02-25T22:36:30.132Z,40.50
2018-02-25T22:39:01.240Z,40.50
2018-02-25T22:41:32.979Z,41.00
2018-02-25T22:44:04.567Z,41.00
2018-02-25T22:46:35.614Z,41.60
2018-02-25T22:49:06.862Z,41.80
2018-02-25T22:51:38.682Z,42.40
2018-02-25T22:54:10.986Z,42.40
2018-02-25T22:56:42.738Z,42.40
2018-02-25T22:59:14.562Z,44.00
2018-02-25T23:01:46.027Z,43.90
2018-02-25T23:04:34.433Z,45.80
2018-02-25T23:07:05.716Z,45.80
2018-02-25T23:09:37.258Z,45.80
2018-02-25T23:12:09.195Z,45.70
2018-02-25T23:14:40.308Z,45.80
2018-02-25T23:17:12.419Z,45.60
2018-02-25T23:19:43.563Z,45.20
2018-02-25T23:22:15.769Z,44.70
2018-02-25T23:24:47.409Z,44.30
2018-02-25T23:27:19.155Z,44.10
2018-02-25T23:29:50.443Z,44.10
2018-02-25T23:32:22.022Z,44.30
2018-02-25T23:34:54.597Z,44.20
2018-02-25T23:37:25.836Z,43.70
2018-02-25T23:39:58.304Z,43.60
2018-02-25T23:42:30.088Z,44.00
2018-02-25T23:45:01.253Z,44.30
2018-02-25T23:47:33.224Z,44.60
2018-02-25T23:50:04.379Z,44.70
2018-02-25T23:52:36.394Z,44.70
2018-02-25T23:55:08.117Z,44.70
2018-02-25T23:57:39.365Z,44.70
